• Join FlightAware (Why Join?)
  • Login
  • US Flag 
01:06AM EST


 

Airport Tracker/Info


-or-


 

Live Flight TrackerFlight Track Log ✈ AWE297 ✈ 21-Jun-2013 ✈ KCLT - KPHX

Flight Track Log - Related Links

Times and Time Zones

All times are in EDT time to prevent confusion due to time zone crossing. See the AWE297 flight status page for this flight to view local times or setup timezone preferences in your user account.

Time Position Orientation Groundspeed Altitude Reporting Facility
EDT Latitude Longitude Course Direction KTS MPH feet Rate Location/Type
10:25PM 35.2930 -81.0170 290° West 253 291 2,900  Level FlightAware
10:26PM 35.2890 -81.0680 265° West 279 321 3,900 2,100 Climbing FlightAware
10:26PM 35.2860 -81.0940 262° West 280 322 4,600 2,280 Climbing FlightAware
10:27PM 35.2710 -81.1350 246° West 289 333 5,600 2,340 Climbing FlightAware
10:27PM 35.2610 -81.1510 233° Southwest 286 329 6,200 2,520 Climbing FlightAware
10:27PM 35.2380 -81.1910 235° Southwest 286 329 7,400 2,400 Climbing FlightAware
10:28PM 35.2150 -81.2280 233° Southwest 289 333 8,500 2,160 Climbing FlightAware
10:28PM 35.1970 -81.2590 235° Southwest 294 338 9,300 1,860 Climbing FlightAware
10:29PM 35.1590 -81.3220 234° Southwest 308 354 10,700 1,500 Climbing FlightAware
10:30PM 35.1230 -81.3820 234° Southwest 337 388 11,500 1,620 Climbing FlightAware
10:30PM 35.0840 -81.4480 234° Southwest 342 394 13,000 1,980 Climbing FlightAware
10:31PM 35.0450 -81.5130 234° Southwest 348 400 14,300 1,920 Climbing FlightAware
10:32PM 35.0070 -81.5760 234° Southwest 351 404 15,600 1,860 Climbing FlightAware
10:32PM 34.9790 -81.6530 246° West 358 412 16,900 1,560 Climbing FlightAware
10:33PM 34.9530 -81.7380 250° West 367 422 17,900 1,440 Climbing FlightAware
10:34PM 34.9260 -81.8160 247° West 370 426 18,900 1,380 Climbing FlightAware
10:35PM 34.8850 -81.8910 236° Southwest 376 433 19,900 1,260 Climbing FlightAware
10:35PM 34.8400 -81.9700 235° Southwest 386 444 20,800 1,200 Climbing FlightAware
10:36PM 34.8010 -82.0390 235° Southwest 393 452 21,600 1,320 Climbing FlightAware
10:37PM 34.7520 -82.1240 235° Southwest 396 456 22,700 1,200 Climbing FlightAware
10:37PM 34.7110 -82.1960 235° Southwest 401 461 23,400 1,080 Climbing FlightAware
10:38PM 34.6660 -82.2760 236° Southwest 406 467 24,200 1,080 Climbing FlightAware
10:39PM 34.6200 -82.3550 235° Southwest 408 470 25,000 960 Climbing FlightAware
10:39PM 34.5800 -82.4270 236° Southwest 416 479 25,500 720 Climbing FlightAware
10:40PM 34.5290 -82.5150 235° Southwest 426 490 26,000 540 Climbing FlightAware
10:41PM 34.4660 -82.6250 235° Southwest 442 509 26,500 540 Climbing FlightAware
10:42PM 34.4130 -82.7160 235° Southwest 449 517 26,900 600 Climbing FlightAware
10:42PM 34.3729 -82.7853 235° Southwest 452 520 27,300 660 Climbing FlightAware ADS-B
10:43PM 34.3077 -82.8975 235° Southwest 455 524 27,900 720 Climbing FlightAware ADS-B
10:44PM 34.2708 -82.9611 235° Southwest 462 532 28,300 720 Climbing FlightAware ADS-B
10:44PM 34.2318 -83.0279 235° Southwest 462 532 28,700 900 Climbing FlightAware ADS-B
10:45PM 34.1916 -83.0967 235° Southwest 459 528 29,300 1,140 Climbing FlightAware ADS-B
10:45PM 34.1491 -83.1693 235° Southwest 455 524 30,000 1,080 Climbing FlightAware ADS-B
10:46PM 34.1060 -83.2440 235° Southwest 448 516 30,600 900 Climbing FlightAware
10:47PM 34.0726 -83.2998 234° Southwest 447 514 31,000 660 Climbing FlightAware ADS-B
10:47PM 34.0215 -83.3866 235° Southwest 448 516 31,400 540 Climbing FlightAware ADS-B
10:48PM 33.9853 -83.4479 235° Southwest 449 517 31,700 420 Climbing FlightAware ADS-B
10:49PM 33.9090 -83.5770 235° Southwest 450 518 32,100 180 Climbing FlightAware
10:49PM 33.8630 -83.6600 236° Southwest 451 519 32,100  Level FlightAware
10:51PM 33.8300 -83.7420 244° Southwest 454 522 32,100  Level FlightAware
10:51PM 33.7865 -83.9081 253° West 453 521 32,100  Level FlightAware ADS-B
10:51PM 33.7824 -83.9506 263° West 449 517 32,100  Level FlightAware ADS-B
10:52PM 33.7804 -84.0255 268° West 448 516 32,100 -120 Level FlightAware ADS-B
10:52PM 33.7784 -84.1014 268° West 448 516 32,000  Descending FlightAware ADS-B
10:53PM 33.7763 -84.1790 268° West 449 517 32,100 60 Climbing FlightAware ADS-B
10:54PM 33.7743 -84.2557 268° West 450 518 32,100  Level FlightAware ADS-B
10:54PM 33.7722 -84.3310 268° West 451 519 32,100  Level FlightAware ADS-B
10:55PM 33.7701 -84.4073 268° West 452 520 32,100  Level FlightAware ADS-B
10:55PM 33.7678 -84.4876 268° West 453 521 32,100  Level FlightAware ADS-B
10:56PM 33.7654 -84.5682 268° West 454 522 32,100  Level FlightAware ADS-B
10:56PM 33.7628 -84.6508 268° West 456 525 32,100  Level FlightAware ADS-B
10:57PM 33.7603 -84.7326 268° West 458 527 32,100  Level FlightAware ADS-B
10:57PM 33.7579 -84.8104 268° West 457 526 32,100 60 Level FlightAware ADS-B
10:58PM 33.7554 -84.8882 268° West 456 525 32,200  Climbing FlightAware ADS-B
10:58PM 33.7528 -84.9661 268° West 453 521 32,100 -120 Descending FlightAware ADS-B
10:59PM 33.7501 -85.0491 268° West 450 518 32,100  Level FlightAware ADS-B
10:59PM 33.7474 -85.1278 268° West 448 516 32,100  Level FlightAware ADS-B
11:00PM 33.7448 -85.2037 268° West 446 513 32,100  Level FlightAware ADS-B
11:00PM 33.7419 -85.2852 268° West 444 511 32,100 -120 Level FlightAware ADS-B
11:01PM 33.7370 -85.4090 267° West 443 510 32,000 -120 Descending FlightAware
11:02PM 33.7343 -85.4969 268° West 444 511 32,000 60 Level FlightAware ADS-B
11:02PM 33.7315 -85.5718 267° West 445 512 32,100 60 Climbing FlightAware ADS-B
11:03PM 33.7284 -85.6514 267° West 446 513 32,100  Level FlightAware ADS-B
11:03PM 33.7254 -85.7294 267° West 445 512 32,100  Level FlightAware ADS-B
11:04PM 33.7224 -85.8062 267° West 446 513 32,100  Level FlightAware ADS-B
11:04PM 33.7194 -85.8814 267° West 446 513 32,100  Level FlightAware ADS-B
11:05PM 33.7158 -85.9717 267° West 448 516 32,100  Level FlightAware ADS-B
11:06PM 33.7123 -86.0526 267° West 451 519 32,100  Level FlightAware ADS-B
11:06PM 33.7091 -86.1307 267° West 452 520 32,100  Level FlightAware ADS-B
11:07PM 33.7050 -86.2210 267° West 452 520 32,100  Level FlightAware
11:07PM 33.7029 -86.2746 267° West 452 520 32,100  Level FlightAware ADS-B
11:08PM 33.6975 -86.3993 267° West 454 522 32,100  Level FlightAware ADS-B
11:09PM 33.6900 -86.5360 266° West 452 520 32,100  Level FlightAware
11:10PM 33.6850 -86.6690 267° West 452 520 32,100  Level FlightAware
11:12PM 33.6800 -86.7740 267° West 450 518 32,100  Level FlightAware
11:12PM 33.6680 -87.0120 267° West 448 516 32,100  Level FlightAware
11:13PM 33.6600 -87.1860 267° West 447 514 32,100  Level FlightAware
11:14PM 33.6550 -87.2710 266° West 447 514 32,100  Level FlightAware
11:14PM 33.6500 -87.3530 266° West 447 514 32,100  Level FlightAware
11:16PM 33.6400 -87.5380 266° West 447 514 32,100  Level FlightAware
11:16PM 33.6350 -87.6120 265° West 447 514 32,100  Level FlightAware
11:17PM 33.6290 -87.7130 266° West 447 514 32,100  Level FlightAware
11:18PM 33.6250 -87.7890 266° West 447 514 32,100  Level FlightAware
11:19PM 33.6190 -87.8900 266° West 447 514 32,100  Level FlightAware
11:19PM 33.6140 -87.9700 266° West 447 514 32,100  Level FlightAware
11:20PM 33.6080 -88.0730 266° West 447 514 32,100  Level FlightAware
11:21PM 33.6040 -88.1490 266° West 447 514 32,100  Level FlightAware
11:22PM 33.5980 -88.2500 266° West 447 514 32,100  Level FlightAware
11:22PM 33.5940 -88.3260 266° West 447 514 32,100  Level FlightAware
11:23PM 33.5870 -88.4310 265° West 447 514 32,100  Level FlightAware
11:24PM 33.5719 -88.7689 265° West 461 531 32,100  Level Memphis Center
11:25PM 33.5694 -88.9036 269° West 461 531 32,100 -60 Level Memphis Center
11:26PM 33.5669 -89.0683 269° West 456 525 32,000  Descending Memphis Center
11:27PM 33.5642 -89.2131 269° West 451 519 32,100  Climbing Memphis Center
11:28PM 33.5592 -89.3625 268° West 451 519 32,100  Level Memphis Center
11:29PM 33.5542 -89.5147 268° West 451 519 32,100  Level Memphis Center
11:30PM 33.5489 -89.6619 268° West 451 519 32,100  Level Memphis Center
11:31PM 33.5453 -89.8139 268° West 456 525 32,100  Level Memphis Center
11:32PM 33.5417 -89.9633 268° West 463 533 32,100  Level Memphis Center
11:33PM 33.5358 -90.1156 267° West 463 533 32,100  Level Memphis Center
11:34PM 33.5297 -90.2650 267° West 463 533 32,100  Level Memphis Center
11:35PM 33.5278 -90.4022 269° West 463 533 32,100  Level Memphis Center
11:36PM 33.5214 -90.5542 267° West 457 526 32,100  Level Memphis Center
11:37PM 33.5147 -90.7036 267° West 457 526 32,100 -60 Level Memphis Center
11:38PM 33.5081 -90.8531 267° West 457 526 32,000  Descending Memphis Center
11:39PM 33.5033 -91.0025 268° West 457 526 32,100  Climbing Memphis Center
11:40PM 33.4961 -91.1544 267° West 457 526 32,100  Level Memphis Center
11:41PM 33.4908 -91.3039 268° West 457 526 32,100  Level Memphis Center
11:43PM 33.4789 -91.6783 268° West 472 543 32,100  Level Fort Worth Center
11:44PM 33.4753 -91.8306 268° West 467 537 32,100  Level Fort Worth Center
11:45PM 33.4656 -91.9856 266° West 461 531 32,100  Level Fort Worth Center
11:46PM 33.4594 -92.1353 267° West 461 531 32,100  Level Fort Worth Center
11:47PM 33.4511 -92.2900 266° West 466 536 32,100  Level Fort Worth Center
11:48PM 33.4444 -92.4350 267° West 461 531 32,100  Level Fort Worth Center
11:54PM 33.3899 -93.3532 267° West 451 519 32,100  Level FlightAware ADS-B
11:55PM 33.3853 -93.4293 266° West 450 518 32,100  Level FlightAware ADS-B
11:57PM 33.3618 -93.8186 266° West 448 516 32,100  Level FlightAware ADS-B
11:58PM 33.3571 -93.8950 266° West 450 518 32,100  Level FlightAware ADS-B
11:58PM 33.3498 -94.0093 266° West 451 519 32,100  Level FlightAware ADS-B
11:59PM 33.3449 -94.0865 266° West 452 520 32,100  Level FlightAware ADS-B
12:00AM 33.3391 -94.1753 266° West 452 520 32,100  Level FlightAware ADS-B
12:00AM 33.3342 -94.2508 266° West 450 518 32,100  Level FlightAware ADS-B
12:01AM 33.3293 -94.3258 266° West 450 518 32,100  Level FlightAware ADS-B
12:01AM 33.3240 -94.4050 265° West 449 517 32,100  Level FlightAware
12:01AM 33.3212 -94.4458 265° West 449 517 32,100  Level FlightAware ADS-B
12:02AM 33.3157 -94.5271 265° West 449 517 32,100  Level FlightAware ADS-B
12:02AM 33.3105 -94.6017 265° West 447 514 32,100  Level FlightAware ADS-B
12:03AM 33.3055 -94.6759 265° West 446 513 32,100  Level FlightAware ADS-B
12:04AM 33.2997 -94.7585 265° West 445 512 32,100  Level FlightAware ADS-B
12:04AM 33.2938 -94.8423 265° West 444 511 32,100  Level FlightAware ADS-B
12:05AM 33.2886 -94.9162 265° West 444 511 32,100  Level FlightAware ADS-B
12:05AM 33.2831 -94.9935 265° West 444 511 32,100  Level FlightAware ADS-B
12:06AM 33.2777 -95.0683 265° West 444 511 32,100  Level FlightAware ADS-B
12:06AM 33.2710 -95.1620 265° West 442 509 32,100  Level FlightAware
12:07AM 33.2660 -95.2279 265° West 442 509 32,100  Level FlightAware ADS-B
12:07AM 33.2586 -95.3292 265° West 442 509 32,100  Level FlightAware ADS-B
12:08AM 33.2490 -95.4630 265° West 442 509 32,100  Level FlightAware
12:09AM 33.2403 -95.5717 265° West 443 510 32,100  Level FlightAware ADS-B
12:10AM 33.2344 -95.6492 265° West 443 510 32,100  Level FlightAware ADS-B
12:11AM 33.2250 -95.7750 265° West 441 507 32,100  Level FlightAware
12:11AM 33.2187 -95.8495 264° West 442 509 32,100  Level FlightAware ADS-B
12:12AM 33.2117 -95.9394 265° West 444 511 32,100  Level FlightAware ADS-B
12:13AM 33.2011 -96.0721 265° West 445 512 32,100  Level FlightAware ADS-B
12:13AM 33.1951 -96.1463 265° West 445 512 32,100  Level FlightAware ADS-B
12:14AM 33.1891 -96.2201 264° West 444 511 32,100  Level FlightAware ADS-B
12:14AM 33.1821 -96.3057 264° West 443 510 32,100  Level FlightAware ADS-B
12:15AM 33.1760 -96.3796 264° West 442 509 32,100  Level FlightAware ADS-B
12:15AM 33.1698 -96.4527 264° West 442 509 32,100  Level FlightAware ADS-B
12:16AM 33.1632 -96.5330 264° West 444 511 32,100 360 Level FlightAware ADS-B
12:16AM 33.1569 -96.6075 264° West 441 507 32,500 780 Climbing FlightAware ADS-B
12:17AM 33.1466 -96.7279 264° West 438 504 33,200 780 Climbing FlightAware ADS-B
12:18AM 33.1404 -96.8014 264° West 435 501 33,600 780 Climbing FlightAware ADS-B
12:18AM 33.1339 -96.8750 264° West 436 502 34,000 300 Climbing FlightAware ADS-B
12:19AM 33.1220 -97.0080 264° West 435 501 34,100  Climbing FlightAware
12:20AM 33.1130 -97.1160 264° West 433 498 34,100  Level FlightAware
12:20AM 33.1030 -97.2220 264° West 431 496 34,100  Level FlightAware
12:21AM 33.1022 -97.2326 265° West 431 496 34,100  Level FlightAware ADS-B
12:21AM 33.0946 -97.3171 264° West 431 496 34,100  Level FlightAware ADS-B
12:22AM 33.0879 -97.3904 264° West 432 497 34,100  Level FlightAware ADS-B
12:23AM 33.0760 -97.5204 264° West 434 499 34,100  Level FlightAware ADS-B
12:23AM 33.0687 -97.5998 264° West 437 503 34,100  Level FlightAware ADS-B
12:24AM 33.0570 -97.7210 263° West 440 506 34,100  Level FlightAware
12:25AM 33.0490 -97.8040 263° West 442 509 34,100  Level FlightAware
12:25AM 33.0390 -97.9150 264° West 444 511 34,100  Level FlightAware
12:26AM 33.0337 -97.9702 263° West 445 512 34,100  Level FlightAware ADS-B
12:26AM 33.0232 -98.0787 263° West 445 512 34,100  Level FlightAware ADS-B
12:27AM 33.0160 -98.1531 263° West 444 511 34,100  Level FlightAware ADS-B
12:28AM 33.0081 -98.2346 263° West 443 510 34,100  Level FlightAware ADS-B
12:28AM 32.9990 -98.3290 263° West 443 510 34,100  Level FlightAware
12:29AM 32.9890 -98.4280 263° West 444 511 34,100  Level FlightAware
12:30AM 32.9780 -98.5370 263° West 446 513 34,100  Level FlightAware
12:30AM 32.9690 -98.6290 263° West 447 514 34,100  Level FlightAware
12:31AM 32.9570 -98.7410 263° West 447 514 34,100  Level FlightAware
12:32AM 32.9470 -98.8390 263° West 446 513 34,100  Level FlightAware
12:32AM 32.9360 -98.9420 263° West 444 511 34,100  Level FlightAware
12:33AM 32.9250 -99.0470 263° West 443 510 34,100  Level FlightAware
12:34AM 32.9150 -99.1450 263° West 442 509 34,100  Level FlightAware
12:34AM 32.9040 -99.2460 263° West 440 506 34,100  Level FlightAware
12:35AM 32.8940 -99.3460 263° West 436 502 34,100 -120 Level FlightAware
12:36AM 32.8830 -99.4500 263° West 435 501 34,000  Descending FlightAware
12:37AM 32.8720 -99.5440 262° West 436 502 34,100 60 Climbing FlightAware
12:37AM 32.8610 -99.6500 263° West 437 503 34,100  Level FlightAware
12:38AM 32.8500 -99.7450 262° West 437 503 34,100  Level FlightAware
12:39AM 32.8390 -99.8490 263° West 435 501 34,100  Level FlightAware
12:39AM 32.8080 -99.9380 248° West 440 506 34,100  Level FlightAware
12:40AM 32.7410 -100.0440 233° Southwest 440 506 34,100  Level FlightAware
12:41AM 32.6860 -100.1330 234° Southwest 441 507 34,100  Level FlightAware
12:42AM 32.6380 -100.2110 234° Southwest 442 509 34,100  Level FlightAware
12:42AM 32.5850 -100.2980 234° Southwest 445 512 34,100  Level FlightAware
12:43AM 32.5350 -100.3770 233° Southwest 446 513 34,100  Level FlightAware
12:44AM 32.4840 -100.4560 233° Southwest 445 512 34,100  Level FlightAware
12:45AM 32.3870 -100.6240 236° Southwest 441 507 34,100  Level FlightAware
12:46AM 32.3470 -100.7120 242° Southwest 442 509 34,100 -120 Level FlightAware
12:47AM 32.3200 -100.8080 252° West 434 499 34,000  Descending FlightAware
12:47AM 32.3150 -100.9080 267° West 433 498 34,100 60 Climbing FlightAware
12:48AM 32.3100 -101.0140 267° West 433 498 34,100  Level FlightAware
12:49AM 32.3060 -101.1070 267° West 433 498 34,100  Level FlightAware
12:49AM 32.3010 -101.2130 267° West 433 498 34,100  Level FlightAware
12:50AM 32.2960 -101.3130 267° West 435 501 34,100  Level FlightAware
12:51AM 32.2910 -101.4110 267° West 434 499 34,100  Level FlightAware
12:51AM 32.2860 -101.5070 267° West 434 499 34,100 -120 Level FlightAware
12:52AM 32.2810 -101.6100 267° West 437 503 34,000 -120 Descending FlightAware
12:53AM 32.2760 -101.7070 267° West 442 509 34,000 60 Level FlightAware
12:54AM 32.2710 -101.8030 267° West 444 511 34,100 60 Climbing FlightAware
12:54AM 32.2660 -101.8790 266° West 444 511 34,100  Level FlightAware
12:55AM 32.2590 -102.0170 267° West 441 507 34,100 60 Level FlightAware
12:56AM 32.2540 -102.1070 266° West 440 506 34,200  Climbing FlightAware
12:57AM 32.2470 -102.2320 266° West 427 491 34,100 -60 Descending FlightAware
12:58AM 32.2400 -102.3460 266° West 427 491 34,100  Level FlightAware
12:58AM 32.2360 -102.4160 266° West 427 491 34,100  Level FlightAware
12:59AM 32.2310 -102.5070 266° West 427 491 34,100  Level FlightAware
01:00AM 32.2260 -102.5780 265° West 427 491 34,100  Level FlightAware
01:00AM 32.2210 -102.6770 267° West 427 491 34,100  Level FlightAware
01:01AM 32.2160 -102.7480 265° West 427 491 34,100  Level FlightAware
01:02AM 32.2110 -102.8450 267° West 427 491 34,100  Level FlightAware
01:02AM 32.2060 -102.9170 265° West 427 491 34,100  Level FlightAware
01:03AM 32.2010 -103.0120 266° West 427 491 34,100  Level FlightAware
01:04AM 32.1970 -103.0790 266° West 427 491 34,100  Level FlightAware
01:05AM 32.1910 -103.1740 266° West 427 491 34,100  Level FlightAware
01:05AM 32.1870 -103.2450 266° West 427 491 34,100  Level FlightAware
01:06AM 32.1810 -103.3400 266° West 427 491 34,100  Level FlightAware
01:07AM 32.1917 -103.6325 266° West 420 483 34,100  Level Albuquerque Center
01:08AM 32.1978 -103.7711 273° West 423 487 34,100  Level Albuquerque Center
01:09AM 32.2042 -103.9100 273° West 425 489 34,100  Level Albuquerque Center
01:10AM 32.2081 -104.0464 272° West 420 483 34,100  Level Albuquerque Center
01:11AM 32.2133 -104.1844 273° West 419 482 34,100 -60 Level Albuquerque Center
01:12AM 32.2181 -104.3222 272° West 420 483 34,000 -60 Descending Albuquerque Center
01:13AM 32.2219 -104.4592 272° West 419 482 34,000  Level Albuquerque Center
01:14AM 32.2250 -104.5961 272° West 420 483 34,000  Level Albuquerque Center
01:15AM 32.2281 -104.7356 272° West 423 487 34,100  Climbing Albuquerque Center
01:16AM 32.2322 -104.8761 272° West 429 494 34,100  Level Albuquerque Center
01:17AM 32.2356 -105.0186 272° West 434 499 34,100  Level Albuquerque Center
01:18AM 32.2389 -105.1589 272° West 432 497 34,100  Level Albuquerque Center
01:19AM 32.2422 -105.3025 272° West 436 502 34,100  Level Albuquerque Center
01:20AM 32.2450 -105.4494 271° West 446 513 34,100  Level Albuquerque Center
01:25AM 32.2590 -106.1660 271° West 431 496 34,100  Level FlightAware
01:26AM 32.2610 -106.3020 271° West 434 499 34,100  Level FlightAware
01:27AM 32.2620 -106.4090 271° West 438 504 34,100  Level FlightAware
01:27AM 32.2640 -106.5040 271° West 437 503 34,100 60 Level FlightAware
01:28AM 32.2650 -106.6100 271° West 436 502 34,200  Climbing FlightAware
01:29AM 32.2660 -106.7050 271° West 433 498 34,100 -120 Descending FlightAware
01:29AM 32.2670 -106.8120 271° West 431 496 34,100  Level FlightAware
01:30AM 32.2680 -106.9060 271° West 430 495 34,100  Level FlightAware
01:31AM 32.2770 -107.0060 276° West 430 495 34,100  Level FlightAware
01:32AM 32.2850 -107.0960 276° West 430 495 34,100  Level FlightAware
01:32AM 32.2940 -107.1740 278° West 429 494 34,100  Level FlightAware
01:33AM 32.3040 -107.2780 277° West 427 491 34,100  Level FlightAware
01:34AM 32.3140 -107.3850 276° West 427 491 34,100  Level FlightAware
01:34AM 32.3160 -107.4090 276° West 426 490 34,100  Level FlightAware
01:35AM 32.3220 -107.4780 276° West 426 490 34,100  Level FlightAware
01:36AM 32.3310 -107.5800 276° West 426 490 34,100  Level FlightAware
01:36AM 32.3380 -107.6510 277° West 426 490 34,100  Level FlightAware
01:37AM 32.3460 -107.7460 276° West 426 490 34,100  Level FlightAware
01:38AM 32.3520 -107.8170 276° West 426 490 34,100  Level FlightAware
01:39AM 32.3610 -107.9120 276° West 426 490 34,100  Level FlightAware
01:39AM 32.3670 -107.9870 275° West 426 490 34,100  Level FlightAware
01:40AM 32.3740 -108.0620 276° West 426 490 34,100  Level FlightAware
01:41AM 32.3830 -108.1560 276° West 426 490 34,100  Level FlightAware
01:41AM 32.3880 -108.2230 275° West 426 490 34,100  Level FlightAware
01:42AM 32.3970 -108.3200 276° West 426 490 34,100  Level FlightAware
01:43AM 32.4340 -108.6530 278° West 425 489 34,100  Level FlightAware
01:43AM 32.4540 -108.7460 284° West 423 487 34,100  Level FlightAware
01:44AM 32.4750 -108.8420 285° West 423 487 34,100  Level FlightAware
01:45AM 32.4940 -108.9340 284° West 422 486 34,100  Level FlightAware
01:46AM 32.5150 -109.0270 285° West 422 486 34,100  Level FlightAware
01:46AM 32.5360 -109.1260 284° West 421 484 34,100  Level FlightAware
01:47AM 32.5550 -109.2160 284° West 421 484 34,100  Level FlightAware
01:48AM 32.5740 -109.3060 284° West 422 486 34,100  Level FlightAware
01:48AM 32.5960 -109.4070 285° West 424 488 34,100  Level FlightAware
01:49AM 32.6160 -109.5050 284° West 424 488 34,100  Level FlightAware
01:50AM 32.6340 -109.5880 284° West 423 487 34,100  Level FlightAware
01:50AM 32.6560 -109.6920 284° West 418 481 34,100 -120 Level FlightAware
01:51AM 32.6740 -109.7830 283° West 416 479 34,000  Descending FlightAware
01:52AM 32.6940 -109.8780 284° West 421 484 34,100 60 Climbing FlightAware
01:53AM 32.7130 -109.9680 284° West 422 486 34,100  Level FlightAware
01:53AM 32.7340 -110.0700 284° West 421 484 34,100  Level FlightAware
01:54AM 32.7520 -110.1590 284° West 419 482 34,100 -180 Level FlightAware
01:55AM 32.7690 -110.2430 284° West 417 480 33,900 -1,500 Descending FlightAware
01:55AM 32.7910 -110.3490 284° West 423 487 32,000 -3,000 Descending FlightAware
01:56AM 32.8100 -110.4430 284° West 436 502 29,500 -3,360 Descending FlightAware
01:57AM 32.8310 -110.5460 284° West 438 504 27,300 -2,820 Descending FlightAware
01:57AM 32.8490 -110.6390 283° West 428 493 25,600 -2,520 Descending FlightAware
01:58AM 32.8680 -110.7330 284° West 415 478 23,800 -2,520 Descending FlightAware
01:59AM 32.8860 -110.8240 283° West 408 470 22,100 -2,400 Descending FlightAware
02:00AM 32.9060 -110.9240 283° West 401 461 20,200 -2,460 Descending FlightAware
02:00AM 32.9280 -111.0350 283° West 388 447 18,100 -2,640 Descending FlightAware
02:01AM 32.9450 -111.1180 284° West 385 443 16,400 -2,460 Descending FlightAware
02:02AM 32.9610 -111.2000 283° West 382 440 14,800 -1,680 Descending FlightAware
02:03AM 32.9790 -111.2950 283° West 346 398 14,000 -960 Descending FlightAware
02:03AM 32.9930 -111.3670 283° West 320 368 13,400 -960 Descending FlightAware
02:04AM 33.0130 -111.4250 292° West 309 356 12,800 -1,380 Descending FlightAware
02:05AM 33.0490 -111.4950 302° West 309 356 11,500 -1,380 Descending FlightAware
02:06AM 33.1060 -111.5800 309° West 307 353 9,800 -1,380 Descending FlightAware
02:06AM 33.1430 -111.6060 330° Northwest 304 350 9,200 -1,500 Descending FlightAware
02:07AM 33.1660 -111.6220 330° Northwest 303 349 8,900 -960 Descending FlightAware
02:07AM 33.1980 -111.6440 330° Northwest 299 344 8,500 -1,140 Descending FlightAware
02:08AM 33.2350 -111.6700 330° Northwest 296 341 7,800 -1,440 Descending FlightAware
02:08AM 33.2670 -111.6920 330° Northwest 295 339 7,200 -1,440 Descending FlightAware
02:09AM 33.2930 -111.7100 330° Northwest 295 339 6,600 -1,620 Descending FlightAware
02:09AM 33.3470 -111.7480 330° Northwest 278 320 5,500 -1,740 Descending FlightAware
02:10AM 33.3770 -111.7680 331° Northwest 271 312 4,800 -540 Descending FlightAware
02:12AM 33.4350 -111.8140 327° Northwest 225 259 4,200 -900 Descending FlightAware
02:12AM 33.4410 -111.9030 275° West 162 186 2,700 -2,700 Descending FlightAware
02:12AM 33.4410 -111.9250 270° West 148 170 2,300 -840 Descending FlightAware
02:13AM 33.4410 -111.9470 270° West 144 166 2,000 -720 Descending FlightAware
02:13AM 33.4410 -111.9690 270° West 148 170 1,700 -660 Descending FlightAware
02:14AM 33.4410 -111.9920 270° West 153 176 1,400 -360 Descending FlightAware
02:14AM 33.4410 -112.0120 270° West 153 176 1,400  Level FlightAware
02:17AM 33.4390 -112.0030 105° East 15 17 -480 Descending FlightAware
02:18AM 33.4390 -112.0010 90° East 30 35  Level FlightAware
02:18AM 33.4390 -111.9970 90° East 30 35  Level FlightAware
02:22AM 33.4333 -112.0000 40° Northeast  Level FlightAware Approximate